Time;durP1;ratioP1;P1;durP2;ratioP2;P2;SDS_P1;SDS_P2;PMS_P1;PMS_P2;Temp;Humidity;BMP_temperature;BMP_pressure;BME280_temperature;BME280_humidity;BME280_pressure;Samples;Min_cycle;Max_cycle;Signal;HPM_P1;HPM_P2
2023/09/26 04:00:15;;;;;;;;;;;12.40;99.90;;;;;;6005877;23;19921;31
2023/09/26 04:02:41;;;;;;;;;;;12.40;99.90;;;;;;4954713;29;19981;-66
2023/09/26 04:05:07;;;;;;;;;;;12.50;99.90;;;;;;4939765;29;20316;-66
2023/09/26 04:07:32;;;;;;;;;;;12.50;99.90;;;;;;4957641;29;19910;-67
2023/09/26 04:09:57;;;;;;;;;;;12.60;99.90;;;;;;4958472;29;20284;-66
2023/09/26 04:12:23;;;;;;;;;;;12.60;99.90;;;;;;4957814;29;19957;-67
2023/09/26 04:14:48;;;;;;;;;;;12.70;99.90;;;;;;4939520;29;19907;-67
2023/09/26 04:17:14;;;;;;;;;;;12.70;99.90;;;;;;4985553;23;19930;-66
2023/09/26 04:19:39;;;;;;;;;;;12.70;99.90;;;;;;4974818;28;20009;-65
2023/09/26 04:22:05;;;;;;;;;;;12.60;99.90;;;;;;4976759;28;19906;-66
2023/09/26 04:24:30;;;;;;;;;;;12.60;99.90;;;;;;4977104;28;19921;-65
2023/09/26 04:26:56;;;;;;;;;;;12.70;99.90;;;;;;4975394;28;19906;-65
2023/09/26 04:29:21;;;;;;;;;;;12.70;99.90;;;;;;4974793;28;19906;-65
2023/09/26 04:31:47;;;;;;;;;;;12.60;99.90;;;;;;4974733;28;19910;-65
2023/09/26 04:34:12;;;;;;;;;;;12.60;99.90;;;;;;4972730;28;19910;-65
2023/09/26 04:36:38;;;;;;;;;;;12.50;99.90;;;;;;4973267;28;19947;-67
2023/09/26 04:39:03;;;;;;;;;;;12.50;99.90;;;;;;4969697;28;19907;-69
2023/09/26 04:41:29;;;;;;;;;;;12.40;99.90;;;;;;4961646;28;19910;-70
2023/09/26 04:43:54;;;;;;;;;;;12.40;99.90;;;;;;4962385;29;19913;-69
2023/09/26 04:46:19;;;;;;;;;;;12.50;99.90;;;;;;4959876;28;20004;-70
2023/09/26 04:48:46;;;;;;;;;;;12.50;99.90;;;;;;4959044;29;19911;-71
2023/09/26 04:51:12;;;;;;;;;;;12.40;99.90;;;;;;4973275;28;19931;-69
2023/09/26 04:53:38;;;;;;;;;;;12.40;99.90;;;;;;4968676;28;19961;-68
2023/09/26 04:56:04;;;;;;;;;;;12.40;99.90;;;;;;4958270;28;19906;-70
2023/09/26 04:58:30;;;;;;;;;;;12.40;99.90;;;;;;4970202;28;20388;-70
2023/09/26 05:00:56;;;;;;;;;;;12.40;99.90;;;;;;4978242;28;19928;-70
2023/09/26 05:03:22;;;;;;;;;;;12.40;99.90;;;;;;4978803;28;19906;-70
2023/09/26 05:05:47;;;;;;;;;;;12.30;99.90;;;;;;4980710;28;20363;-70
2023/09/26 05:08:13;;;;;;;;;;;12.30;99.90;;;;;;4980178;28;19910;-66
2023/09/26 05:10:38;;;;;;;;;;;12.30;99.90;;;;;;4976494;28;19913;-66
2023/09/26 05:13:05;;;;;;;;;;;12.60;99.90;;;;;;4977761;28;19906;-65
2023/09/26 05:15:32;;;;;;;;;;;12.40;99.90;;;;;;4977524;28;20319;-66
2023/09/26 05:17:58;;;;;;;;;;;12.20;99.90;;;;;;4978393;28;19910;-66
2023/09/26 05:20:24;;;;;;;;;;;12.20;99.90;;;;;;4976173;28;19913;-66
2023/09/26 05:22:49;;;;;;;;;;;12.10;99.90;;;;;;4975906;28;19914;-66
2023/09/26 05:25:15;;;;;;;;;;;12.20;99.90;;;;;;4977352;28;19906;-66
2023/09/26 05:27:43;;;;;;;;;;;12.20;99.90;;;;;;4975494;28;19964;-66
2023/09/26 05:30:09;;;;;;;;;;;12.20;99.90;;;;;;4976958;28;19906;-66
2023/09/26 05:32:35;;;;;;;;;;;12.20;99.90;;;;;;4975326;28;19906;-66
2023/09/26 05:35:00;;;;;;;;;;;12.20;99.90;;;;;;4976515;28;20006;-66
2023/09/26 05:37:26;;;;;;;;;;;12.20;99.90;;;;;;4976833;28;19913;-66
2023/09/26 05:39:52;;;;;;;;;;;12.20;99.90;;;;;;4975365;28;19906;-66
2023/09/26 05:42:17;;;;;;;;;;;12.10;99.90;;;;;;4975447;28;20009;-66
2023/09/26 05:44:43;;;;;;;;;;;12.10;99.90;;;;;;4975340;28;19928;-66
2023/09/26 05:47:08;;;;;;;;;;;12.00;99.90;;;;;;4976601;28;19956;-66
2023/09/26 05:49:34;;;;;;;;;;;12.00;99.90;;;;;;4976691;28;19906;-66
2023/09/26 05:51:59;;;;;;;;;;;12.00;99.90;;;;;;4975815;28;20372;-67
2023/09/26 05:54:25;;;;;;;;;;;12.10;99.90;;;;;;4976433;28;19906;-67
2023/09/26 05:56:50;;;;;;;;;;;12.20;99.90;;;;;;4976364;28;20396;-66
2023/09/26 05:59:16;;;;;;;;;;;12.30;99.90;;;;;;4976569;28;20365;-67
2023/09/26 06:01:41;;;;;;;;;;;12.30;99.90;;;;;;4976413;28;20327;-66
2023/09/26 06:04:07;;;;;;;;;;;12.30;99.90;;;;;;4976060;28;20037;-66
2023/09/26 06:06:33;;;;;;;;;;;12.30;99.90;;;;;;4976552;28;19906;-67
2023/09/26 06:08:58;;;;;;;;;;;12.40;99.90;;;;;;4976098;28;19914;-66
2023/09/26 06:11:24;;;;;;;;;;;12.40;99.90;;;;;;4976094;28;20008;-66
2023/09/26 06:13:52;;;;;;;;;;;12.40;99.90;;;;;;4974782;28;19913;-67
2023/09/26 06:16:21;;;;;;;;;;;12.50;99.90;;;;;;4975822;28;19914;-66
2023/09/26 06:18:49;;;;;;;;;;;12.50;99.90;;;;;;4975518;28;19910;-67
2023/09/26 06:21:15;;;;;;;;;;;12.60;99.90;;;;;;4976688;28;20332;-66
2023/09/26 06:23:41;;;;;;;;;;;12.60;99.90;;;;;;4974551;28;19913;-66
2023/09/26 06:26:07;;;;;;;;;;;12.70;99.90;;;;;;4972723;28;20592;-66
2023/09/26 06:28:33;;;;;;;;;;;12.70;99.90;;;;;;4975655;28;20361;-66
2023/09/26 06:31:08;;;;;;;;;;;12.80;99.90;;;;;;4975980;28;19912;-66
2023/09/26 06:33:35;;;;;;;;;;;12.90;99.90;;;;;;4974339;28;19906;-66
2023/09/26 06:36:00;;;;;;;;;;;12.80;99.90;;;;;;4974185;28;19910;-66
2023/09/26 06:38:26;;;;;;;;;;;12.80;99.90;;;;;;4975560;28;19912;-66
2023/09/26 06:41:01;;;;;;;;;;;12.90;99.90;;;;;;4975677;28;20005;-65
2023/09/26 06:43:27;;;;;;;;;;;12.90;99.90;;;;;;4974376;28;19996;-65
2023/09/26 06:45:52;;;;;;;;;;;12.90;99.90;;;;;;4974220;28;20343;-65
2023/09/26 06:48:18;;;;;;;;;;;12.90;99.90;;;;;;4975952;28;20293;-67
2023/09/26 06:50:43;;;;;;;;;;;12.90;99.90;;;;;;4975534;28;19906;-66
2023/09/26 06:53:09;;;;;;;;;;;13.00;99.90;;;;;;4974342;28;20367;-66
2023/09/26 06:55:39;;;;;;;;;;;13.10;99.90;;;;;;4974408;28;20222;-66
2023/09/26 06:58:07;;;;;;;;;;;13.10;99.90;;;;;;4975772;28;19976;-66
2023/09/26 07:00:34;;;;;;;;;;;13.20;99.90;;;;;;4975914;28;20300;-65
2023/09/26 07:02:59;;;;;;;;;;;13.20;99.90;;;;;;4973803;28;20317;-66
2023/09/26 07:05:28;;;;;;;;;;;13.20;99.90;;;;;;4975323;28;19913;-65
2023/09/26 07:07:54;;;;;;;;;;;13.30;99.90;;;;;;4975566;28;19910;-67
2023/09/26 07:10:22;;;;;;;;;;;13.30;99.90;;;;;;4974333;28;19929;-66
2023/09/26 07:12:47;;;;;;;;;;;13.30;99.90;;;;;;4975688;28;19906;-67
2023/09/26 07:15:13;;;;;;;;;;;13.40;99.90;;;;;;4975838;28;20321;-66
2023/09/26 07:17:38;;;;;;;;;;;13.40;99.90;;;;;;4973700;28;19914;-65
2023/09/26 07:20:07;;;;;;;;;;;13.50;99.90;;;;;;4974936;28;19906;-66
2023/09/26 07:22:33;;;;;;;;;;;13.60;99.90;;;;;;4973676;28;19946;-66
2023/09/26 07:24:58;;;;;;;;;;;13.60;99.90;;;;;;4975072;28;20249;-66
2023/09/26 07:27:24;;;;;;;;;;;13.70;99.90;;;;;;4975941;28;20297;-66
2023/09/26 07:29:49;;;;;;;;;;;13.80;99.90;;;;;;4975902;28;20277;-66
2023/09/26 07:32:15;;;;;;;;;;;13.90;99.90;;;;;;4975380;28;19913;-65
2023/09/26 07:34:41;;;;;;;;;;;13.90;99.90;;;;;;4975471;28;19914;-66
2023/09/26 07:37:07;;;;;;;;;;;14.00;99.90;;;;;;4975154;28;19957;-66
2023/09/26 07:39:32;;;;;;;;;;;14.00;99.90;;;;;;4974991;28;19974;-66
2023/09/26 07:41:58;;;;;;;;;;;14.10;99.90;;;;;;4974664;28;19906;-66
2023/09/26 07:44:24;;;;;;;;;;;14.20;99.90;;;;;;4974978;28;19906;-66
2023/09/26 07:46:49;;;;;;;;;;;14.30;99.90;;;;;;4974756;28;19906;-67
2023/09/26 07:49:15;;;;;;;;;;;14.40;99.90;;;;;;4974259;28;19916;-66
2023/09/26 07:51:41;;;;;;;;;;;14.40;99.90;;;;;;4973533;28;19911;-66
2023/09/26 07:54:06;;;;;;;;;;;14.40;99.90;;;;;;4975072;28;20002;-66
2023/09/26 07:56:32;;;;;;;;;;;14.50;99.90;;;;;;4974991;28;19910;-66
2023/09/26 07:58:57;;;;;;;;;;;14.60;99.90;;;;;;4976282;28;19913;-66
2023/09/26 08:01:23;;;;;;;;;;;14.60;99.90;;;;;;4976202;28;20360;-66
2023/09/26 08:03:48;;;;;;;;;;;14.70;99.90;;;;;;4976026;28;20056;-67
2023/09/26 08:06:14;;;;;;;;;;;14.60;99.90;;;;;;4974104;28;19906;-65
2023/09/26 08:08:39;;;;;;;;;;;14.70;99.90;;;;;;4974247;28;20009;-66
2023/09/26 08:11:06;;;;;;;;;;;14.80;99.90;;;;;;4974905;28;19914;-67
2023/09/26 08:13:31;;;;;;;;;;;14.90;99.90;;;;;;4974881;28;19914;-66
2023/09/26 08:15:57;;;;;;;;;;;15.00;99.90;;;;;;4976787;28;19910;-66
2023/09/26 08:18:23;;;;;;;;;;;15.10;99.90;;;;;;4978521;28;20388;-67
2023/09/26 08:20:49;;;;;;;;;;;15.40;99.90;;;;;;4978179;28;19906;-66
2023/09/26 08:23:16;;;;;;;;;;;15.40;99.90;;;;;;4978755;28;19914;-66
2023/09/26 08:25:41;;;;;;;;;;;15.50;99.90;;;;;;4977979;28;20037;-66
2023/09/26 08:28:07;;;;;;;;;;;15.60;99.90;;;;;;4978743;28;19949;-66
2023/09/26 08:30:33;;;;;;;;;;;15.70;99.90;;;;;;4978474;28;19956;-66
2023/09/26 08:32:58;;;;;;;;;;;15.70;99.90;;;;;;4978846;28;20349;-66
2023/09/26 08:35:24;;;;;;;;;;;15.80;99.90;;;;;;4978374;28;19906;-65
2023/09/26 08:37:49;;;;;;;;;;;16.00;99.90;;;;;;4978290;28;20068;-66
2023/09/26 08:40:14;;;;;;;;;;;16.10;99.90;;;;;;4976929;28;19906;-65
2023/09/26 08:42:41;;;;;;;;;;;16.10;99.90;;;;;;4978555;28;19910;-66
2023/09/26 08:45:06;;;;;;;;;;;16.30;99.90;;;;;;4978277;28;19906;-66
2023/09/26 08:47:33;;;;;;;;;;;16.40;99.90;;;;;;4978150;28;19916;-66
2023/09/26 08:49:59;;;;;;;;;;;16.50;99.90;;;;;;4976322;28;19913;-66
2023/09/26 08:52:24;;;;;;;;;;;16.60;99.90;;;;;;4977696;28;19906;-66
2023/09/26 08:54:50;;;;;;;;;;;16.80;99.90;;;;;;4977697;28;20519;-66
2023/09/26 08:57:17;;;;;;;;;;;17.80;99.90;;;;;;4977523;28;19989;-67
2023/09/26 08:59:44;;;;;;;;;;;20.90;99.90;;;;;;4977443;28;19953;-66
2023/09/26 09:02:11;;;;;;;;;;;24.20;99.00;;;;;;4977324;28;19906;-66
2023/09/26 09:04:38;;;;;;;;;;;26.40;94.80;;;;;;4977502;28;19912;-66
2023/09/26 09:07:04;;;;;;;;;;;27.30;92.10;;;;;;4975915;28;19913;-66
2023/09/26 09:09:30;;;;;;;;;;;28.40;90.90;;;;;;4975922;28;19910;-65
2023/09/26 09:11:56;;;;;;;;;;;30.20;87.60;;;;;;4977496;28;19973;-65
2023/09/26 09:14:32;;;;;;;;;;;31.50;84.10;;;;;;4977244;28;20280;-66
2023/09/26 09:16:58;;;;;;;;;;;31.90;80.60;;;;;;4975909;28;19965;-66
2023/09/26 09:19:43;;;;;;;;;;;31.60;79.10;;;;;;4977176;28;19993;-66
2023/09/26 09:22:21;;;;;;;;;;;31.40;78.30;;;;;;4977249;28;19913;-65
2023/09/26 09:24:54;;;;;;;;;;;30.50;78.60;;;;;;4977233;28;19996;-66
2023/09/26 09:27:27;;;;;;;;;;;30.00;79.20;;;;;;4975810;28;19913;-66
2023/09/26 09:30:01;;;;;;;;;;;28.50;81.20;;;;;;4975619;28;19906;-65
2023/09/26 09:32:26;;;;;;;;;;;27.40;83.20;;;;;;4977110;28;19906;-66
2023/09/26 09:34:51;;;;;;;;;;;25.70;86.50;;;;;;4975563;28;19960;-65
2023/09/26 09:37:19;;;;;;;;;;;25.10;88.50;;;;;;4977054;28;20357;-65
2023/09/26 09:39:46;;;;;;;;;;;24.70;89.00;;;;;;4977285;28;20420;-65
2023/09/26 09:42:12;;;;;;;;;;;23.80;90.60;;;;;;4976769;28;20000;-65
2023/09/26 09:44:38;;;;;;;;;;;23.40;91.50;;;;;;4976580;28;19952;-66
2023/09/26 09:47:04;;;;;;;;;;;24.00;91.70;;;;;;4977039;28;19936;-66
2023/09/26 09:49:36;;;;;;;;;;;25.80;90.20;;;;;;4976919;28;19910;-66
2023/09/26 09:52:02;;;;;;;;;;;28.10;86.10;;;;;;4976961;28;19906;-66
2023/09/26 09:54:30;;;;;;;;;;;30.60;81.50;;;;;;4975451;28;19945;-66
2023/09/26 09:56:56;;;;;;;;;;;32.20;78.00;;;;;;4975814;28;19906;-67
2023/09/26 09:59:23;;;;;;;;;;;33.60;75.20;;;;;;4976687;28;19960;-65
2023/09/26 10:01:49;;;;;;;;;;;34.60;72.80;;;;;;4976566;28;19906;-66
2023/09/26 10:04:15;;;;;;;;;;;35.50;70.50;;;;;;4977101;28;19906;-67
2023/09/26 10:06:41;;;;;;;;;;;36.10;68.70;;;;;;4976690;28;19910;-66
2023/09/26 10:09:08;;;;;;;;;;;36.00;67.50;;;;;;4976675;28;20013;-65
2023/09/26 10:11:35;;;;;;;;;;;35.70;67.00;;;;;;4975082;28;20284;-65
2023/09/26 10:14:02;;;;;;;;;;;35.90;66.60;;;;;;4976538;28;19952;-66
2023/09/26 10:16:29;;;;;;;;;;;36.70;65.60;;;;;;4976433;28;19918;-67
2023/09/26 10:18:55;;;;;;;;;;;36.90;64.70;;;;;;4976700;28;19989;-66
2023/09/26 10:21:24;;;;;;;;;;;36.80;64.40;;;;;;4976341;28;20419;-65
2023/09/26 10:24:04;;;;;;;;;;;35.30;65.00;;;;;;4976264;28;19985;-66
2023/09/26 10:26:30;;;;;;;;;;;35.60;65.10;;;;;;4976434;28;19960;-66
2023/09/26 10:29:00;;;;;;;;;;;36.50;64.20;;;;;;4976393;28;20004;-67
2023/09/26 10:31:28;;;;;;;;;;;36.70;63.80;;;;;;4976200;28;19913;-66
2023/09/26 10:33:56;;;;;;;;;;;37.00;63.10;;;;;;4976129;28;19957;-66
2023/09/26 10:36:22;;;;;;;;;;;36.60;63.20;;;;;;4976181;28;20266;-66
2023/09/26 10:38:57;;;;;;;;;;;36.20;63.60;;;;;;4975944;28;19917;-66
2023/09/26 10:41:22;;;;;;;;;;;36.40;63.00;;;;;;4976297;28;19961;-66
2023/09/26 10:43:48;;;;;;;;;;;35.60;63.90;;;;;;4975960;28;20206;-66
2023/09/26 10:46:13;;;;;;;;;;;35.90;64.70;;;;;;4974620;28;19953;-67
2023/09/26 10:48:40;;;;;;;;;;;36.40;63.50;;;;;;4975890;28;19982;-66
2023/09/26 10:51:06;;;;;;;;;;;36.10;63.60;;;;;;4975743;28;20392;-67
2023/09/26 10:53:31;;;;;;;;;;;36.60;63.80;;;;;;4975834;28;19910;-66
2023/09/26 10:55:57;;;;;;;;;;;36.60;62.80;;;;;;4975647;28;19912;-65
2023/09/26 10:58:22;;;;;;;;;;;35.80;63.30;;;;;;4975464;28;20360;-66
2023/09/26 11:00:51;;;;;;;;;;;33.10;65.10;;;;;;4975817;28;19916;-65
2023/09/26 11:03:17;;;;;;;;;;;30.90;68.20;;;;;;4975157;28;20308;-66
2023/09/26 11:05:43;;;;;;;;;;;29.00;71.90;;;;;;4974252;28;19906;-66
2023/09/26 11:08:08;;;;;;;;;;;27.80;74.10;;;;;;4975026;28;20496;-66
2023/09/26 11:10:34;;;;;;;;;;;26.70;77.00;;;;;;4975132;28;19933;-66
2023/09/26 11:12:59;;;;;;;;;;;25.90;79.00;;;;;;4975235;28;20369;-67
2023/09/26 11:15:25;;;;;;;;;;;25.40;80.30;;;;;;4975188;28;19993;-65
2023/09/26 11:17:51;;;;;;;;;;;24.90;82.00;;;;;;4974953;28;19914;-66
2023/09/26 11:20:16;;;;;;;;;;;23.90;84.10;;;;;;4975087;28;19913;-65
2023/09/26 11:22:43;;;;;;;;;;;23.10;87.00;;;;;;4976389;28;19913;-67
2023/09/26 11:25:11;;;;;;;;;;;22.90;88.50;;;;;;4975390;28;19906;-66
2023/09/26 11:27:55;;;;;;;;;;;22.70;89.50;;;;;;4976065;28;20321;-67
2023/09/26 11:30:21;;;;;;;;;;;22.60;90.30;;;;;;4973514;28;20357;-67
2023/09/26 11:32:53;;;;;;;;;;;22.40;90.70;;;;;;4976653;28;20469;-67
2023/09/26 11:35:19;;;;;;;;;;;22.40;91.20;;;;;;4975460;28;19982;-67
2023/09/26 11:37:52;;;;;;;;;;;22.50;91.10;;;;;;4975161;28;19929;-67
2023/09/26 11:40:24;;;;;;;;;;;22.50;91.50;;;;;;4975329;28;19910;-65
2023/09/26 11:42:52;;;;;;;;;;;22.40;91.50;;;;;;4973921;28;20308;-64
2023/09/26 11:45:23;;;;;;;;;;;22.50;91.40;;;;;;4975058;28;20253;-65
2023/09/26 11:47:49;;;;;;;;;;;22.40;91.60;;;;;;4975009;28;19910;-67
2023/09/26 11:50:15;;;;;;;;;;;22.10;91.80;;;;;;4974067;28;19906;-68
2023/09/26 11:52:41;;;;;;;;;;;22.00;92.30;;;;;;4974621;28;19936;-68
2023/09/26 11:55:06;;;;;;;;;;;22.00;92.60;;;;;;4974603;28;19906;-68
2023/09/26 11:57:33;;;;;;;;;;;22.00;92.70;;;;;;4975000;28;20364;-68
2023/09/26 11:59:59;;;;;;;;;;;22.00;93.10;;;;;;4975075;28;19964;-67
2023/09/26 12:02:24;;;;;;;;;;;22.00;93.10;;;;;;4974455;28;20353;-67
2023/09/26 12:04:50;;;;;;;;;;;22.00;93.40;;;;;;4974473;28;19906;-68
2023/09/26 12:07:15;;;;;;;;;;;22.10;93.50;;;;;;4974263;28;19906;-67
2023/09/26 12:09:43;;;;;;;;;;;22.10;93.50;;;;;;4975388;28;19973;-68
2023/09/26 12:12:09;;;;;;;;;;;22.20;93.70;;;;;;4975333;28;19956;-68
2023/09/26 12:14:35;;;;;;;;;;;22.30;94.20;;;;;;4973034;28;19905;-68
2023/09/26 12:17:01;;;;;;;;;;;22.40;93.80;;;;;;4974226;28;19972;-68
2023/09/26 12:19:27;;;;;;;;;;;22.30;93.50;;;;;;4973672;28;19913;-70
2023/09/26 12:21:53;;;;;;;;;;;22.20;93.70;;;;;;4975310;28;20353;-71
2023/09/26 12:24:18;;;;;;;;;;;22.20;93.80;;;;;;4973900;28;19960;-77
2023/09/26 12:26:46;;;;;;;;;;;22.30;94.20;;;;;;4974722;28;19906;-71
2023/09/26 12:29:15;;;;;;;;;;;22.50;93.90;;;;;;4974606;28;19925;-72
2023/09/26 12:31:42;;;;;;;;;;;22.50;93.80;;;;;;4975256;28;19941;-72
2023/09/26 12:34:08;;;;;;;;;;;22.70;93.80;;;;;;4973390;28;19906;-71
2023/09/26 12:36:34;;;;;;;;;;;22.70;93.40;;;;;;4974647;28;19917;-75
2023/09/26 12:38:59;;;;;;;;;;;22.60;93.30;;;;;;4974645;28;20005;-69
2023/09/26 12:41:25;;;;;;;;;;;22.60;93.50;;;;;;4973617;28;19912;-68
2023/09/26 12:43:51;;;;;;;;;;;22.60;93.60;;;;;;4974593;28;19921;-68
2023/09/26 12:46:17;;;;;;;;;;;22.60;93.60;;;;;;4975666;28;19914;-67
2023/09/26 12:48:43;;;;;;;;;;;22.80;93.40;;;;;;4976218;28;19910;-68
2023/09/26 12:51:08;;;;;;;;;;;22.80;93.60;;;;;;4972500;28;19914;-67
2023/09/26 12:53:33;;;;;;;;;;;22.80;93.40;;;;;;4973954;28;19972;-68
2023/09/26 12:55:59;;;;;;;;;;;22.70;93.40;;;;;;4974053;28;20368;-68
2023/09/26 12:58:24;;;;;;;;;;;22.70;93.30;;;;;;4974013;28;19913;-68
2023/09/26 13:00:50;;;;;;;;;;;22.70;93.40;;;;;;4967022;28;20347;-71
2023/09/26 13:03:15;;;;;;;;;;;22.80;93.40;;;;;;4957993;28;19906;-68
2023/09/26 13:05:41;;;;;;;;;;;22.80;93.60;;;;;;4957964;28;19906;-68
2023/09/26 13:08:07;;;;;;;;;;;23.00;93.80;;;;;;4956568;28;19933;-69
2023/09/26 13:10:34;;;;;;;;;;;23.20;93.40;;;;;;4958045;28;19911;-69
2023/09/26 13:12:59;;;;;;;;;;;23.20;93.40;;;;;;4958211;28;19993;-67
2023/09/26 13:15:28;;;;;;;;;;;23.20;93.10;;;;;;4957881;28;20000;-67
2023/09/26 13:17:53;;;;;;;;;;;23.30;93.50;;;;;;4956483;29;19917;-69
2023/09/26 13:20:19;;;;;;;;;;;23.30;93.40;;;;;;4956569;29;19906;-68
2023/09/26 13:22:44;;;;;;;;;;;23.30;93.30;;;;;;4959485;28;19906;-77
2023/09/26 13:25:10;;;;;;;;;;;23.30;93.60;;;;;;4958900;28;19911;-76
2023/09/26 13:27:35;;;;;;;;;;;23.40;93.50;;;;;;4959262;28;19907;-76
2023/09/26 13:30:01;;;;;;;;;;;23.40;93.10;;;;;;4958161;29;19958;-77
2023/09/26 13:32:26;;;;;;;;;;;23.50;93.30;;;;;;4957728;29;19910;-76
2023/09/26 13:34:52;;;;;;;;;;;23.40;93.30;;;;;;4958985;28;19906;-78
2023/09/26 13:37:17;;;;;;;;;;;23.40;93.60;;;;;;4959416;28;19914;-76
2023/09/26 13:39:43;;;;;;;;;;;23.50;93.60;;;;;;4961459;28;19913;-77
2023/09/26 13:42:08;;;;;;;;;;;23.50;93.80;;;;;;4958371;28;19913;-77
2023/09/26 13:44:34;;;;;;;;;;;23.50;93.40;;;;;;4957703;28;19946;-77
2023/09/26 13:46:59;;;;;;;;;;;23.50;93.20;;;;;;4957985;28;19907;-77
2023/09/26 13:49:25;;;;;;;;;;;23.50;93.20;;;;;;4957760;28;20292;-77
2023/09/26 13:51:53;;;;;;;;;;;23.50;93.00;;;;;;4965274;28;19920;-78
2023/09/26 13:54:18;;;;;;;;;;;23.40;93.10;;;;;;4967355;28;19913;-77
2023/09/26 13:56:44;;;;;;;;;;;23.40;93.30;;;;;;4966060;28;19906;-76
2023/09/26 13:59:09;;;;;;;;;;;23.30;93.50;;;;;;4959869;29;19907;-78
2023/09/26 14:01:35;;;;;;;;;;;23.40;93.70;;;;;;4959894;29;19906;-78
2023/09/26 14:04:00;;;;;;;;;;;23.50;93.70;;;;;;4961635;29;20010;-79
2023/09/26 14:06:26;;;;;;;;;;;23.90;93.30;;;;;;4959851;29;19910;-78
2023/09/26 14:08:51;;;;;;;;;;;24.30;92.90;;;;;;4959550;29;19914;-78
2023/09/26 14:11:17;;;;;;;;;;;24.80;92.40;;;;;;4972585;29;19917;-78
2023/09/26 14:13:43;;;;;;;;;;;24.90;92.20;;;;;;4972870;28;19977;-78
2023/09/26 14:16:09;;;;;;;;;;;24.70;92.50;;;;;;4974809;29;19914;-77
2023/09/26 14:18:36;;;;;;;;;;;24.40;92.70;;;;;;4974498;29;19918;-78
2023/09/26 14:21:03;;;;;;;;;;;24.30;93.10;;;;;;4969439;29;19910;-78
2023/09/26 14:23:29;;;;;;;;;;;24.20;93.30;;;;;;4961351;29;19913;-78
2023/09/26 14:25:56;;;;;;;;;;;24.00;93.50;;;;;;4961119;29;19993;-78
2023/09/26 14:28:21;;;;;;;;;;;24.00;93.40;;;;;;4960995;29;19954;-79
2023/09/26 14:30:47;;;;;;;;;;;23.90;93.50;;;;;;4961144;29;19906;-78
2023/09/26 14:33:15;;;;;;;;;;;23.70;93.80;;;;;;4944251;29;20013;-75
2023/09/26 14:35:40;;;;;;;;;;;23.70;94.00;;;;;;4955491;29;19906;-75
2023/09/26 14:38:06;;;;;;;;;;;23.60;93.80;;;;;;4955787;29;20365;-74
2023/09/26 14:40:31;;;;;;;;;;;23.60;93.90;;;;;;4957291;29;19914;-74
2023/09/26 14:42:57;;;;;;;;;;;23.50;94.00;;;;;;4956784;29;20345;-74
2023/09/26 14:45:22;;;;;;;;;;;23.50;94.20;;;;;;4955747;29;19906;-73
2023/09/26 14:47:47;;;;;;;;;;;23.40;94.30;;;;;;4956185;29;19918;-74
2023/09/26 14:50:13;;;;;;;;;;;23.30;94.50;;;;;;4957034;29;19906;-74
2023/09/26 14:52:38;;;;;;;;;;;23.20;94.50;;;;;;4955017;29;19952;-75
2023/09/26 14:55:04;;;;;;;;;;;23.20;94.20;;;;;;4954987;29;19914;-75
2023/09/26 14:57:29;;;;;;;;;;;23.10;94.50;;;;;;4956423;29;19906;-75
2023/09/26 14:59:55;;;;;;;;;;;23.10;94.50;;;;;;4955115;29;19907;-72
2023/09/26 15:02:20;;;;;;;;;;;23.10;94.40;;;;;;4956594;29;19910;-73
2023/09/26 15:04:46;;;;;;;;;;;23.00;94.70;;;;;;4956329;29;19907;-73
2023/09/26 15:07:11;;;;;;;;;;;23.00;94.60;;;;;;4956226;29;19957;-71
2023/09/26 15:09:37;;;;;;;;;;;23.00;94.70;;;;;;4956775;29;19911;-72
2023/09/26 15:12:02;;;;;;;;;;;22.90;94.80;;;;;;4954850;29;20024;-70
2023/09/26 15:14:27;;;;;;;;;;;22.80;94.90;;;;;;4956089;29;19953;-70
2023/09/26 15:16:53;;;;;;;;;;;22.80;94.90;;;;;;4955346;29;19954;-69
2023/09/26 15:19:18;;;;;;;;;;;22.70;95.10;;;;;;4956257;29;19925;-68
2023/09/26 15:21:44;;;;;;;;;;;22.60;95.40;;;;;;4956882;29;19906;-70
2023/09/26 15:24:10;;;;;;;;;;;22.50;95.40;;;;;;4956765;28;19918;-71
2023/09/26 15:26:36;;;;;;;;;;;22.50;95.30;;;;;;4958607;29;19914;-71
2023/09/26 15:29:01;;;;;;;;;;;22.50;95.50;;;;;;4955309;29;20030;-70
2023/09/26 15:31:26;;;;;;;;;;;22.50;95.40;;;;;;4956439;29;19929;-69
2023/09/26 15:33:52;;;;;;;;;;;22.50;95.60;;;;;;4961322;28;19948;-70
2023/09/26 15:36:17;;;;;;;;;;;22.40;95.70;;;;;;4964939;28;19906;-70
2023/09/26 15:38:43;;;;;;;;;;;22.40;95.90;;;;;;4968328;28;19913;-71
2023/09/26 15:41:16;;;;;;;;;;;22.30;95.90;;;;;;4967093;28;19906;-70
2023/09/26 15:43:42;;;;;;;;;;;22.20;96.10;;;;;;4968458;28;19915;-70
2023/09/26 15:46:07;;;;;;;;;;;22.20;96.20;;;;;;4968808;28;19910;-71
2023/09/26 15:48:33;;;;;;;;;;;22.10;96.20;;;;;;4972097;28;19934;-71
2023/09/26 15:50:59;;;;;;;;;;;22.20;96.30;;;;;;4963440;28;19961;-71
2023/09/26 15:53:24;;;;;;;;;;;22.20;96.30;;;;;;4961564;28;19907;-70
2023/09/26 15:55:49;;;;;;;;;;;22.20;96.40;;;;;;4954478;28;19907;-71
2023/09/26 15:58:15;;;;;;;;;;;22.10;96.50;;;;;;4970429;28;19949;-69
2023/09/26 16:00:40;;;;;;;;;;;22.00;96.70;;;;;;4974691;28;19914;-67
2023/09/26 16:03:06;;;;;;;;;;;22.00;97.00;;;;;;4975104;28;19928;-73
2023/09/26 16:05:31;;;;;;;;;;;21.90;97.30;;;;;;4975731;28;19913;-74
2023/09/26 16:07:57;;;;;;;;;;;21.80;97.40;;;;;;4974086;28;20277;-75
2023/09/26 16:10:22;;;;;;;;;;;21.80;97.50;;;;;;4976549;28;19913;-74
2023/09/26 16:12:49;;;;;;;;;;;21.80;97.60;;;;;;4979477;28;19906;-75
2023/09/26 16:15:15;;;;;;;;;;;21.70;97.70;;;;;;4980860;28;19917;-74
2023/09/26 16:17:41;;;;;;;;;;;21.70;97.80;;;;;;5023011;23;19922;-67
2023/09/26 16:20:07;;;;;;;;;;;21.60;98.10;;;;;;4998283;28;19910;-68
2023/09/26 16:22:32;;;;;;;;;;;21.60;98.20;;;;;;4994657;28;19949;-67
2023/09/26 16:24:57;;;;;;;;;;;21.50;98.40;;;;;;5003227;28;20376;-67
2023/09/26 16:27:23;;;;;;;;;;;21.50;98.50;;;;;;4993797;28;19905;-68
2023/09/26 16:29:48;;;;;;;;;;;21.40;98.60;;;;;;4987034;28;20267;-67
2023/09/26 16:32:14;;;;;;;;;;;21.40;98.80;;;;;;4977715;28;19973;-68
2023/09/26 16:34:39;;;;;;;;;;;21.40;99.00;;;;;;4978894;28;19942;-67
2023/09/26 16:37:05;;;;;;;;;;;21.30;99.40;;;;;;4983757;28;20320;-68
2023/09/26 16:39:31;;;;;;;;;;;21.20;99.60;;;;;;4988625;28;20440;-67
2023/09/26 16:41:56;;;;;;;;;;;21.20;99.80;;;;;;4993110;28;19910;-69
2023/09/26 16:44:22;;;;;;;;;;;21.20;99.90;;;;;;4989125;28;19917;-68
2023/09/26 16:46:47;;;;;;;;;;;21.10;99.90;;;;;;4986356;28;19961;-67
2023/09/26 16:49:13;;;;;;;;;;;21.00;99.90;;;;;;4986309;28;19925;-68
2023/09/26 16:51:38;;;;;;;;;;;21.00;99.90;;;;;;4990720;28;20327;-68
2023/09/26 16:54:04;;;;;;;;;;;20.90;99.90;;;;;;4996128;28;19944;-68
2023/09/26 16:56:30;;;;;;;;;;;20.90;99.90;;;;;;4997154;28;19936;-68
2023/09/26 16:58:55;;;;;;;;;;;20.80;99.90;;;;;;4997668;28;19906;-67
2023/09/26 17:01:21;;;;;;;;;;;20.80;99.90;;;;;;4996126;28;20276;-67
2023/09/26 17:03:48;;;;;;;;;;;20.80;99.90;;;;;;4997594;28;19959;-68
2023/09/26 17:06:14;;;;;;;;;;;20.70;99.90;;;;;;4997305;28;19905;-68
2023/09/26 17:08:41;;;;;;;;;;;20.60;99.90;;;;;;4995948;28;19916;-68
2023/09/26 17:11:07;;;;;;;;;;;20.50;99.90;;;;;;4997700;28;20291;-68
2023/09/26 17:13:33;;;;;;;;;;;20.50;99.90;;;;;;4996297;28;19916;-68
2023/09/26 17:15:59;;;;;;;;;;;20.50;99.90;;;;;;4998204;28;19973;-68
2023/09/26 17:18:24;;;;;;;;;;;20.40;99.90;;;;;;4998507;28;20012;-67
2023/09/26 17:20:49;;;;;;;;;;;20.40;99.90;;;;;;4998102;28;19913;-64
2023/09/26 17:23:15;;;;;;;;;;;20.30;99.90;;;;;;4997095;28;19906;-64
2023/09/26 17:25:41;;;;;;;;;;;20.30;99.90;;;;;;4996450;28;19956;-67
2023/09/26 17:28:07;;;;;;;;;;;20.20;99.90;;;;;;4986009;28;19910;-66
2023/09/26 17:30:32;;;;;;;;;;;20.20;99.90;;;;;;4987830;28;19916;-66
2023/09/26 17:32:58;;;;;;;;;;;20.10;99.90;;;;;;4982304;28;19906;-66
2023/09/26 17:35:24;;;;;;;;;;;20.10;99.90;;;;;;4976033;28;20040;-67
2023/09/26 17:37:49;;;;;;;;;;;20.00;99.90;;;;;;4977694;28;19953;-66
2023/09/26 17:40:15;;;;;;;;;;;19.90;99.90;;;;;;4977717;28;19921;-66
2023/09/26 17:42:40;;;;;;;;;;;19.90;99.90;;;;;;4982389;28;19929;-67
2023/09/26 17:45:06;;;;;;;;;;;19.90;99.90;;;;;;4982811;28;19906;-67
2023/09/26 17:47:31;;;;;;;;;;;19.80;99.90;;;;;;4975881;28;19913;-64
2023/09/26 17:50:00;;;;;;;;;;;19.70;99.90;;;;;;4975567;28;20320;-63
2023/09/26 17:52:25;;;;;;;;;;;19.70;99.90;;;;;;4976781;28;19906;-66
2023/09/26 17:54:51;;;;;;;;;;;19.70;99.90;;;;;;4995044;28;19976;-67
2023/09/26 17:57:16;;;;;;;;;;;19.60;99.90;;;;;;4996214;28;20004;-66
2023/09/26 17:59:42;;;;;;;;;;;19.60;99.90;;;;;;4984502;28;19910;-65
2023/09/26 18:02:07;;;;;;;;;;;19.50;99.90;;;;;;4977279;28;19906;-66
2023/09/26 18:04:33;;;;;;;;;;;19.40;99.90;;;;;;4976551;28;19952;-66
2023/09/26 18:06:59;;;;;;;;;;;19.40;99.90;;;;;;4976654;28;19906;-66
2023/09/26 18:09:25;;;;;;;;;;;19.30;99.90;;;;;;4976495;28;20360;-67